• Join FlightAware (Why Join?)
  • Login
  • US Flag 
05:21AM EDT


 

Airport Tracker/Info


-or-


 

Live Flight TrackerFlight Track Log ✈ ASQ4549 ✈ 23-Apr-2014 ✈ KIAH - KCVG

Flight Track Log - Related Links

Times and Time Zones

All times are in EDT time to prevent confusion due to time zone crossing. See the ASQ4549 flight status page for this flight to view local times or setup timezone preferences in your user account.

Time Position Orientation Groundspeed Altitude Reporting Facility
EDT Latitude Longitude Course Direction KTS MPH feet Rate Location/Type
08:26PM 29.9786 -95.2981 24° Northeast 158 182 800  Level Houston Center
08:28PM 30.0408 -95.2664 24° Northeast 243 280 2,300 1,680 Climbing Houston Center
08:29PM 30.1158 -95.2381 18° North 272 313 4,600 1,920 Climbing Houston Center
08:30PM 30.1869 -95.2122 17° North 270 311 6,300 1,860 Climbing Houston Center
08:31PM 30.2497 -95.1900 17° North 280 322 8,300 1,800 Climbing Houston Center
08:32PM 30.3264 -95.1636 17° North 284 327 9,900 1,020 Climbing Houston Center
08:33PM 30.4111 -95.1342 17° North 312 359 10,500 660 Climbing Houston Center
08:34PM 30.5103 -95.1003 16° North 352 405 11,300 1,020 Climbing Houston Center
08:35PM 30.6264 -95.0536 19° North 365 420 12,700 1,200 Climbing Houston Center
08:36PM 30.7169 -94.9944 29° Northeast 372 428 13,800 1,020 Climbing Houston Center
08:37PM 30.8103 -94.9361 28° Northeast 376 433 14,900 960 Climbing Houston Center
08:38PM 30.9039 -94.8781 28° Northeast 379 436 15,900 960 Climbing Houston Center
08:39PM 30.9994 -94.8192 28° Northeast 383 441 17,000 1,140 Climbing Houston Center
08:40PM 31.1139 -94.7464 29° Northeast 388 447 18,300 1,140 Climbing Houston Center
08:41PM 31.2075 -94.6833 30° Northeast 402 463 19,400 960 Climbing Houston Center
08:42PM 31.3014 -94.6203 30° Northeast 403 464 20,400 960 Climbing Houston Center
08:43PM 31.3975 -94.5556 30° Northeast 403 464 21,400 1,080 Climbing Houston Center
08:44PM 31.5153 -94.4736 31° Northeast 405 466 22,700 1,140 Climbing Houston Center
08:45PM 31.6144 -94.4042 31° Northeast 409 471 23,800 960 Climbing Houston Center
08:46PM 31.6939 -94.3472 31° Northeast 413 475 24,600 960 Climbing Fort Worth Center
08:47PM 31.7933 -94.2772 31° Northeast 413 475 25,700 960 Climbing Fort Worth Center
08:48PM 31.8914 -94.2075 31° Northeast 413 475 26,700 1,080 Climbing Fort Worth Center
08:49PM 32.0100 -94.1253 30° Northeast 413 475 28,000 1,080 Climbing Fort Worth Center
08:50PM 32.1069 -94.0564 31° Northeast 409 471 29,000 960 Climbing Fort Worth Center
08:51PM 32.1967 -93.9931 31° Northeast 408 470 30,000 960 Climbing Fort Worth Center
08:52PM 32.2933 -93.9264 30° Northeast 407 468 31,100 1,140 Climbing Fort Worth Center
08:53PM 32.4092 -93.8436 31° Northeast 407 468 32,400 1,080 Climbing Fort Worth Center
08:54PM 32.5050 -93.7767 30° Northeast 402 463 33,400 960 Climbing Fort Worth Center
08:55PM 32.6014 -93.7058 32° Northeast 406 467 34,400 720 Climbing Fort Worth Center
08:56PM 32.6969 -93.6381 31° Northeast 406 467 35,000 240 Climbing Fort Worth Center
08:57PM 32.7947 -93.5675 31° Northeast 411 473 35,000  Level Fort Worth Center
08:58PM 32.8989 -93.4917 31° Northeast 436 502 35,000  Level Fort Worth Center
08:59PM 33.0286 -93.3992 31° Northeast 455 524 35,000  Level Fort Worth Center
09:01PM 33.1392 -93.3192 31° Northeast 463 533 35,000  Level Fort Worth Center
09:02PM 33.2492 -93.2392 31° Northeast 464 534 35,000  Level Fort Worth Center
09:03PM 33.3589 -93.1581 32° Northeast 469 540 35,000  Level Fort Worth Center
09:04PM 33.4675 -93.0789 31° Northeast 464 534 35,000  Level Fort Worth Center
09:05PM 33.5975 -92.9833 31° Northeast 460 529 35,000  Level Fort Worth Center
09:06PM 33.7061 -92.9042 31° Northeast 459 528 35,000  Level Fort Worth Center
09:07PM 33.8133 -92.8244 32° Northeast 457 526 35,000  Level Fort Worth Center
09:08PM 33.9217 -92.7447 31° Northeast 457 526 35,000  Level Fort Worth Center
09:09PM 34.0308 -92.6650 31° Northeast 457 526 35,000  Level Fort Worth Center
09:10PM 34.1400 -92.5833 32° Northeast 460 529 35,000  Level Fort Worth Center
09:11PM 34.2481 -92.5019 32° Northeast 460 529 35,000  Level Fort Worth Center
09:12PM 34.3686 -92.4128 31° Northeast 460 529 35,000  Level Fort Worth Center
09:13PM 34.4775 -92.3308 32° Northeast 462 532 35,000  Level Fort Worth Center
09:14PM 34.5883 -92.2486 31° Northeast 463 533 35,000  Level Fort Worth Center
09:15PM 34.7125 -92.1383 36° Northeast 466 536 35,000  Level Fort Worth Center
09:16PM 34.8367 -91.9778 47° Northeast 469 540 35,000  Level Memphis Center
09:17PM 34.9253 -91.8633 47° Northeast 469 540 35,000  Level Memphis Center
09:18PM 35.0156 -91.7472 46° Northeast 470 541 35,000  Level Memphis Center
09:19PM 35.1056 -91.6308 47° Northeast 470 541 35,000  Level Memphis Center
09:20PM 35.1956 -91.5150 46° Northeast 470 541 35,000  Level Memphis Center
09:21PM 35.2858 -91.3986 46° Northeast 470 541 35,000  Level Memphis Center
09:22PM 35.3764 -91.2803 47° Northeast 471 542 35,000  Level Memphis Center
09:23PM 35.4717 -91.1544 47° Northeast 472 543 35,000  Level Memphis Center
09:24PM 35.5625 -91.0369 46° Northeast 472 543 35,000  Level Memphis Center
09:26PM 35.6517 -90.9172 47° Northeast 472 543 35,000  Level Memphis Center
09:27PM 35.7439 -90.7958 47° Northeast 473 544 35,000  Level Memphis Center
09:28PM 35.8528 -90.6525 47° Northeast 473 544 35,000  Level Memphis Center
09:29PM 35.9433 -90.5325 47° Northeast 473 544 35,000  Level Memphis Center
09:30PM 36.0325 -90.4119 48° Northeast 474 545 35,000  Level Memphis Center
09:31PM 36.1219 -90.2906 48° Northeast 474 545 35,000  Level Memphis Center
09:32PM 36.2119 -90.1681 48° Northeast 474 545 35,000  Level Memphis Center
09:33PM 36.3017 -90.0472 47° Northeast 474 545 35,000  Level Memphis Center
09:34PM 36.3925 -89.9244 47° Northeast 475 547 35,000  Level Memphis Center
09:35PM 36.4819 -89.8025 48° Northeast 475 547 35,000  Level Memphis Center
09:36PM 36.5719 -89.6792 48° Northeast 475 547 35,000  Level Memphis Center
09:37PM 36.6628 -89.5558 47° Northeast 475 547 35,000  Level Memphis Center
09:38PM 36.7525 -89.4303 48° Northeast 475 547 35,000  Level Memphis Center
09:39PM 36.8417 -89.3067 48° Northeast 476 548 35,000  Level Memphis Center
09:40PM 36.9319 -89.1822 48° Northeast 476 548 35,000  Level Memphis Center
09:41PM 37.0386 -89.0328 48° Northeast 476 548 35,000 -120 Level Memphis Center
09:42PM 37.1278 -88.9081 48° Northeast 477 549 34,800 -1,080 Descending Memphis Center
09:43PM 37.2158 -88.7822 49° Northeast 477 549 32,900 -1,740 Descending Memphis Center
09:44PM 37.3053 -88.6589 48° Northeast 477 549 31,300 -960 Descending Memphis Center
09:45PM 37.3889 -88.5383 49° Northeast 464 534 31,000 -180 Descending Memphis Center
09:46PM 37.4747 -88.4172 48° Northeast 462 532 31,000  Level Memphis Center
09:47PM 37.5597 -88.2944 49° Northeast 462 532 31,000  Level Memphis Center
09:48PM 37.6461 -88.1694 49° Northeast 466 536 31,000  Level Memphis Center
09:49PM 37.7067 -88.0683 53° Northeast 475 547 31,000  Level Indianapolis Center
09:50PM 37.7650 -87.9139 64° Northeast 483 556 31,000  Level Indianapolis Center
09:51PM 37.8222 -87.7617 65° Northeast 482 555 31,000  Level Indianapolis Center
09:52PM 37.8797 -87.6078 65° Northeast 482 555 31,000  Level Indianapolis Center
09:53PM 37.9364 -87.4544 65° Northeast 482 555 31,000  Level Indianapolis Center
09:54PM 37.9933 -87.3000 65° Northeast 483 556 31,000  Level Indianapolis Center
09:55PM 38.0500 -87.1461 65° Northeast 483 556 31,000  Level Indianapolis Center
09:56PM 38.1056 -86.9922 65° Northeast 483 556 31,000 -300 Level Indianapolis Center
09:57PM 38.1725 -86.8075 65° Northeast 484 557 30,400 -1,500 Descending Indianapolis Center
09:58PM 38.2281 -86.6556 65° Northeast 483 556 28,000 -2,400 Descending Indianapolis Center
09:59PM 38.2819 -86.5056 65° Northeast 473 544 25,500 -2,460 Descending Indianapolis Center
10:00PM 38.3367 -86.3511 66° East 474 545 23,100 -2,220 Descending Indianapolis Center
10:01PM 38.3897 -86.2042 65° Northeast 466 536 21,100 -1,380 Descending Indianapolis Center
10:02PM 38.4419 -86.0569 66° East 458 527 20,300 -1,620 Descending Indianapolis Center
10:03PM 38.4925 -85.9128 66° East 450 518 17,900 -2,400 Descending Indianapolis Center
10:04PM 38.5408 -85.7725 66° East 439 505 15,500 -2,460 Descending Indianapolis Center
10:05PM 38.5883 -85.6408 65° Northeast 417 480 13,000 -2,160 Descending Indianapolis Center
10:06PM 38.6428 -85.5200 60° Northeast 393 452 11,200 -1,020 Descending Indianapolis Center
10:07PM 38.6958 -85.4036 60° Northeast 388 447 11,000 -360 Descending Indianapolis Center
10:08PM 38.7525 -85.2639 62° Northeast 379 436 10,500 -840 Descending Indianapolis Center
10:09PM 38.7836 -85.1650 68° East 339 390 9,400 -1,260 Descending Indianapolis Center
10:10PM 38.8144 -85.0725 67° East 291 335 8,000 -1,380 Descending Indianapolis Center
10:11PM 38.8439 -84.9808 68° East 285 328 6,600 -1,380 Descending Indianapolis Center
10:12PM 38.8733 -84.8950 66° East 275 316 5,300 -900 Descending Indianapolis Center
10:13PM 38.9008 -84.8111 67° East 266 306 4,800 -540 Descending Indianapolis Center
10:14PM 38.9272 -84.7317 67° East 264 304 4,200 -1,200 Descending Indianapolis Center
10:15PM 38.9667 -84.6500 58° Northeast 161 185 2,100 -1,260 Descending Cincinnati TRACON
10:16PM 39.0000 -84.6500 360° North 114 131 1,400 -720 Descending Cincinnati TRACON